Time;durP1;ratioP1;P1;durP2;ratioP2;P2;SDS_P1;SDS_P2;PMS_P1;PMS_P2;Temp;Humidity;BMP_temperature;BMP_pressure;BME280_temperature;BME280_humidity;BME280_pressure;Samples;Min_cycle;Max_cycle;Signal;HPM_P1;HPM_P2
2023/07/29 00:02:02;;;;;;;5.22;3.42;;;18.70;83.70;;;17.62;100.00;95707.50;4958818;28;20054;-70
2023/07/29 00:04:28;;;;;;;5.82;3.40;;;18.60;83.60;;;17.57;100.00;95713.56;4966159;28;20034;-69
2023/07/29 00:06:54;;;;;;;4.00;3.25;;;18.60;83.90;;;17.55;100.00;95706.88;4986979;28;20581;-70
2023/07/29 00:09:19;;;;;;;4.60;3.47;;;18.60;83.90;;;17.53;100.00;95709.78;4969680;28;20130;-70
2023/07/29 00:11:45;;;;;;;4.35;3.13;;;18.60;83.90;;;17.49;100.00;95703.34;4967921;28;20035;-70
2023/07/29 00:14:11;;;;;;;5.55;3.10;;;18.60;83.90;;;17.47;100.00;95701.97;4966303;28;20054;-70
2023/07/29 00:16:36;;;;;;;4.20;3.30;;;18.50;84.00;;;17.41;100.00;95703.72;4985502;28;20030;-71
2023/07/29 00:19:03;;;;;;;5.57;3.80;;;18.40;84.30;;;17.36;100.00;95703.63;4999675;28;20454;-70
2023/07/29 00:21:28;;;;;;;4.95;4.00;;;18.30;84.40;;;17.32;100.00;95698.00;4984195;28;20049;-70
2023/07/29 00:23:57;;;;;;;5.22;3.47;;;18.30;84.50;;;17.29;100.00;95703.81;4983244;28;20030;-70
2023/07/29 00:26:23;;;;;;;6.63;4.07;;;18.30;84.40;;;17.26;100.00;95706.13;4985385;28;20042;-71
2023/07/29 00:28:49;;;;;;;6.38;3.83;;;18.20;84.60;;;17.22;100.00;95702.34;4952673;28;20726;-70
2023/07/29 00:31:14;;;;;;;4.85;3.38;;;18.10;84.70;;;17.18;100.00;95696.69;4980444;28;20053;-70
2023/07/29 00:33:40;;;;;;;4.30;3.67;;;18.20;84.80;;;17.14;100.00;95693.69;4981398;28;20038;-69
2023/07/29 00:36:06;;;;;;;4.47;3.55;;;18.10;84.90;;;17.13;100.00;95694.75;4983786;28;20051;-70
2023/07/29 00:38:31;;;;;;;4.53;3.78;;;18.20;84.90;;;17.13;100.00;95693.94;4962417;28;20073;-70
2023/07/29 00:40:58;;;;;;;6.03;3.33;;;18.20;84.70;;;17.11;100.00;95694.19;4965324;28;20062;-71
2023/07/29 00:43:24;;;;;;;5.75;3.53;;;18.10;84.80;;;17.09;100.00;95692.81;4982467;28;20038;-70
2023/07/29 00:45:50;;;;;;;5.05;4.10;;;18.10;84.90;;;17.07;100.00;95697.56;4951031;28;20604;-70
2023/07/29 00:48:16;;;;;;;6.32;4.10;;;18.10;84.90;;;17.04;100.00;95696.19;4965357;28;20046;-71
2023/07/29 00:50:41;;;;;;;5.05;3.85;;;18.10;84.80;;;17.02;100.00;95687.66;4951274;28;20445;-70
2023/07/29 00:53:07;;;;;;;5.55;3.83;;;18.10;84.70;;;17.02;100.00;95687.66;4951763;28;20081;-71
2023/07/29 00:55:33;;;;;;;5.45;4.10;;;18.10;84.80;;;17.01;100.00;95690.56;4970569;28;20054;-70
2023/07/29 00:57:59;;;;;;;5.63;4.03;;;18.10;84.70;;;16.99;100.00;95688.16;4966932;28;20040;-71
2023/07/29 01:00:24;;;;;;;4.60;3.63;;;18.10;84.70;;;16.96;100.00;95688.59;4954851;28;20546;-71
2023/07/29 01:02:51;;;;;;;7.57;4.60;;;18.10;84.90;;;16.95;100.00;95681.66;4981910;28;20099;-70
2023/07/29 01:05:17;;;;;;;5.93;3.80;;;18.10;84.80;;;16.93;100.00;95677.66;4949560;28;20054;-70
2023/07/29 01:08:03;;;;;;;5.25;3.90;;;18.10;84.60;;;16.94;100.00;95674.75;4952762;28;20481;-70
2023/07/29 01:11:21;;;;;;;4.38;3.60;;;18.10;84.70;;;16.93;100.00;95678.44;4964181;28;20403;-70
2023/07/29 01:13:54;;;;;;;5.50;4.00;;;18.10;84.80;;;16.87;100.00;95676.75;4987853;28;20038;-72
2023/07/29 01:16:43;;;;;;;4.68;3.88;;;18.00;85.00;;;16.90;100.00;95678.13;4959433;28;20027;-71
2023/07/29 01:19:11;;;;;;;7.50;3.55;;;18.00;85.20;;;16.83;100.00;95670.31;4950703;28;20066;-71
2023/07/29 01:21:37;;;;;;;5.53;3.90;;;18.00;85.10;;;16.89;100.00;95677.31;4962814;28;20039;-71
2023/07/29 01:24:03;;;;;;;4.45;3.58;;;18.10;85.00;;;16.89;100.00;95685.28;4950890;28;20061;-70
2023/07/29 01:26:29;;;;;;;4.22;3.72;;;18.10;84.90;;;16.86;100.00;95683.13;4981967;28;20088;-70
2023/07/29 01:28:58;;;;;;;4.75;3.63;;;18.10;84.90;;;16.85;100.00;95676.19;4967695;28;20520;-70
2023/07/29 01:31:37;;;;;;;5.13;3.90;;;18.10;84.90;;;16.85;100.00;95670.88;4951659;28;20125;-70
2023/07/29 01:34:25;;;;;;;4.93;3.80;;;18.00;84.90;;;16.82;100.00;95674.00;4984069;28;20087;-71
2023/07/29 01:36:50;;;;;;;5.53;3.90;;;18.00;84.90;;;16.80;100.00;95673.44;4968229;28;20052;-70
2023/07/29 01:39:16;;;;;;;5.07;3.80;;;18.00;84.90;;;16.78;100.00;95670.22;4948841;28;20027;-71
2023/07/29 01:41:43;;;;;;;6.57;4.03;;;18.00;84.80;;;16.76;100.00;95677.63;4961965;28;20406;-70
2023/07/29 01:44:09;;;;;;;5.80;3.63;;;17.90;84.90;;;16.74;100.00;95674.38;4948795;28;20046;-70
2023/07/29 01:46:35;;;;;;;5.03;3.88;;;17.90;84.80;;;16.74;100.00;95671.72;4950028;28;20427;-70
2023/07/29 01:49:00;;;;;;;4.78;3.97;;;17.90;84.80;;;16.70;100.00;95665.28;4953504;28;20197;-71
2023/07/29 01:51:26;;;;;;;5.78;4.15;;;17.90;84.80;;;16.65;100.00;95665.97;4966816;28;20452;-70
2023/07/29 01:53:52;;;;;;;5.63;4.00;;;17.80;85.00;;;16.61;100.00;95669.34;4986085;28;21155;-70
2023/07/29 01:56:18;;;;;;;7.30;4.07;;;17.70;85.10;;;16.59;100.00;95666.13;4978135;28;20061;-71
2023/07/29 01:58:43;;;;;;;5.40;4.20;;;17.70;85.10;;;16.57;100.00;95670.84;4985966;28;20073;-71
2023/07/29 02:01:09;;;;;;;4.53;3.80;;;17.70;85.30;;;16.58;100.00;95675.13;4971595;28;20048;-70
2023/07/29 02:03:35;;;;;;;6.07;3.78;;;17.70;85.00;;;16.52;100.00;95661.75;4987651;28;20035;-70
2023/07/29 02:06:01;;;;;;;6.43;4.00;;;17.60;85.00;;;16.51;100.00;95660.13;4987229;28;20411;-70
2023/07/29 02:08:26;;;;;;;5.15;4.63;;;17.60;85.10;;;16.49;100.00;95651.59;4987689;28;20050;-71
2023/07/29 02:10:52;;;;;;;5.07;4.07;;;17.60;85.00;;;16.48;100.00;95657.94;4973786;28;20090;-70
2023/07/29 02:13:18;;;;;;;5.30;3.88;;;17.60;85.10;;;16.47;100.00;95656.31;4986132;28;20038;-70
2023/07/29 02:15:44;;;;;;;5.45;4.32;;;17.60;85.00;;;16.46;100.00;95656.56;4986183;28;20049;-71
2023/07/29 02:18:09;;;;;;;4.85;3.65;;;17.60;85.00;;;16.42;100.00;95650.94;4985901;28;20043;-70
2023/07/29 02:20:35;;;;;;;5.90;4.38;;;17.60;85.00;;;16.42;100.00;95655.44;4987152;28;20062;-70
2023/07/29 02:23:01;;;;;;;5.50;3.38;;;17.60;84.90;;;16.40;100.00;95658.31;4988009;28;20072;-70
2023/07/29 02:25:26;;;;;;;4.53;3.67;;;17.50;85.00;;;16.36;100.00;95648.41;4987689;28;20035;-69
2023/07/29 02:27:52;;;;;;;6.20;4.25;;;17.50;85.00;;;16.34;100.00;95653.97;4987182;28;20091;-70
2023/07/29 02:30:18;;;;;;;5.45;4.10;;;17.50;85.10;;;16.33;100.00;95648.91;4964407;28;20066;-71
2023/07/29 02:32:44;;;;;;;5.75;4.05;;;17.50;85.00;;;16.31;100.00;95649.13;4968714;28;20065;-70
2023/07/29 02:35:10;;;;;;;4.22;3.58;;;17.60;84.80;;;16.32;100.00;95644.63;4986877;28;20178;-70
2023/07/29 02:37:35;;;;;;;5.60;3.97;;;17.50;84.90;;;16.31;100.00;95649.13;4988877;28;20034;-70
2023/07/29 02:40:01;;;;;;;5.35;3.85;;;17.50;85.00;;;16.31;100.00;95654.44;4970030;28;20151;-70
2023/07/29 02:42:27;;;;;;;5.28;3.45;;;17.50;85.10;;;16.26;100.00;95651.66;4970088;28;20035;-71
2023/07/29 02:44:53;;;;;;;4.10;3.30;;;17.50;85.20;;;16.24;100.00;95651.91;4986956;28;20053;-70
2023/07/29 02:47:19;;;;;;;4.68;3.60;;;17.50;85.10;;;16.25;100.00;95655.34;4983911;28;20030;-72
2023/07/29 02:49:45;;;;;;;5.55;3.60;;;17.40;85.10;;;16.23;100.00;95663.56;4987183;28;20062;-70
2023/07/29 02:52:10;;;;;;;6.20;4.00;;;17.40;85.20;;;16.22;100.00;95656.63;4986657;28;20579;-71
2023/07/29 02:54:36;;;;;;;4.93;3.78;;;17.40;85.10;;;16.20;100.00;95665.88;4985721;28;20069;-71
2023/07/29 02:57:02;;;;;;;4.25;3.50;;;17.30;85.30;;;16.16;100.00;95656.78;4985532;28;20066;-71
2023/07/29 02:59:28;;;;;;;8.00;3.95;;;17.30;85.30;;;16.16;100.00;95657.59;4953488;28;20112;-71
2023/07/29 03:01:53;;;;;;;4.40;3.55;;;17.30;85.20;;;16.17;100.00;95667.16;4972293;28;20071;-70
2023/07/29 03:04:19;;;;;;;4.80;3.60;;;17.30;85.20;;;16.16;100.00;95656.78;4987716;28;20120;-70
2023/07/29 03:06:45;;;;;;;4.45;3.85;;;17.30;85.30;;;16.14;100.00;95658.88;4988165;28;20094;-70
2023/07/29 03:09:11;;;;;;;4.68;3.45;;;17.30;85.30;;;16.11;100.00;95648.72;4985504;28;20140;-71
2023/07/29 03:11:36;;;;;;;5.32;3.70;;;17.20;85.30;;;16.07;100.00;95642.25;4987174;28;20502;-70
2023/07/29 03:14:02;;;;;;;4.22;3.42;;;17.20;85.40;;;16.10;100.00;95636.50;4985972;28;20848;-69
2023/07/29 03:16:28;;;;;;;5.53;3.67;;;17.30;85.20;;;16.11;100.00;95648.72;4962981;28;20685;-69
2023/07/29 03:18:53;;;;;;;4.22;3.47;;;17.30;85.30;;;16.12;100.00;95645.03;4987899;28;20038;-70
2023/07/29 03:21:19;;;;;;;7.10;3.30;;;17.30;85.30;;;16.10;100.00;95641.81;4985264;28;20030;-69
2023/07/29 03:23:46;;;;;;;4.00;3.50;;;17.30;85.50;;;16.09;100.00;95641.00;4986357;28;20453;-70
2023/07/29 03:26:12;;;;;;;3.45;2.95;;;17.30;85.40;;;16.10;100.00;95641.81;4969352;28;20844;-70
2023/07/29 03:28:41;;;;;;;4.72;3.40;;;17.30;85.40;;;16.10;100.00;95641.81;4985488;28;20085;-69
2023/07/29 03:31:07;;;;;;;4.45;2.92;;;17.30;85.50;;;16.11;100.00;95635.47;4951067;28;20037;-72
2023/07/29 03:33:32;;;;;;;4.90;3.45;;;17.30;85.50;;;16.10;100.00;95626.69;4969345;28;20050;-70
2023/07/29 03:35:58;;;;;;;6.10;3.90;;;17.30;85.70;;;16.12;100.00;95621.16;4977475;28;20093;-72
2023/07/29 03:38:24;;;;;;;4.95;3.42;;;17.40;85.60;;;16.13;100.00;95617.44;4949423;28;20065;-71
2023/07/29 03:40:50;;;;;;;5.65;3.20;;;17.40;85.50;;;16.16;100.00;95620.44;4944715;28;20054;-69
2023/07/29 03:43:16;;;;;;;3.83;3.42;;;17.50;85.40;;;16.18;100.00;95630.81;4968309;28;20033;-69
2023/07/29 03:45:42;;;;;;;4.22;3.63;;;17.40;85.50;;;16.18;100.00;95634.28;4945287;28;20421;-68
2023/07/29 03:48:07;;;;;;;5.43;3.28;;;17.40;85.40;;;16.20;100.00;95642.00;4963768;28;20034;-69
2023/07/29 03:50:37;;;;;;;3.45;2.78;;;17.40;85.30;;;16.19;100.00;95645.69;4977849;28;20084;-69
2023/07/29 03:53:04;;;;;;;2.90;2.53;;;17.40;85.50;;;16.18;100.00;95646.72;4969972;28;20406;-69
2023/07/29 03:55:30;;;;;;;4.32;3.25;;;17.40;85.80;;;16.18;100.00;95638.78;4957825;28;20475;-69
2023/07/29 03:57:59;;;;;;;4.28;2.80;;;17.30;86.00;;;16.17;100.00;95631.84;4948079;28;20439;-68
2023/07/29 04:00:25;;;;;;;3.92;2.90;;;17.30;86.10;;;16.19;100.00;95640.38;4961118;28;20053;-69
2023/07/29 04:02:51;;;;;;;4.95;2.90;;;17.30;86.10;;;16.19;100.00;95646.50;4983667;28;20514;-69
2023/07/29 04:05:16;;;;;;;4.00;3.00;;;17.40;86.00;;;16.19;100.00;95640.38;4961551;28;20030;-69
2023/07/29 04:07:43;;;;;;;5.00;3.08;;;17.40;85.90;;;16.20;100.00;95647.31;4950445;28;20742;-70
2023/07/29 04:10:08;;;;;;;3.50;3.20;;;17.40;85.90;;;16.22;100.00;95639.91;4945084;28;20106;-69
2023/07/29 04:12:34;;;;;;;3.35;2.83;;;17.40;85.90;;;16.24;100.00;95645.78;4942211;28;20145;-68
2023/07/29 04:15:00;;;;;;;3.85;2.80;;;17.40;85.80;;;16.26;100.00;95629.63;4977195;28;20066;-69
2023/07/29 04:17:26;;;;;;;4.05;2.95;;;17.50;85.70;;;16.29;100.00;95637.91;4962122;28;20592;-68
2023/07/29 04:19:51;;;;;;;4.53;2.80;;;17.50;85.50;;;16.31;100.00;95621.78;4976883;28;20537;-68
2023/07/29 04:22:17;;;;;;;4.32;2.70;;;17.50;85.30;;;16.31;100.00;95627.91;4944755;28;20569;-69
2023/07/29 04:24:43;;;;;;;3.47;2.25;;;17.60;85.00;;;16.32;100.00;95616.25;4981937;28;20105;-68
2023/07/29 04:27:08;;;;;;;3.88;2.63;;;17.60;84.80;;;16.35;100.00;95613.09;4948905;28;20034;-68
2023/07/29 04:29:35;;;;;;;3.35;2.47;;;17.60;84.50;;;16.38;100.00;95612.63;4967052;28;20141;-68
2023/07/29 04:32:02;;;;;;;3.90;3.00;;;17.60;84.40;;;16.38;100.00;95604.66;4929096;28;20138;-70
2023/07/29 04:34:28;;;;;;;2.60;2.17;;;17.70;84.30;;;16.40;100.00;95599.94;4966955;28;20457;-69
2023/07/29 04:36:54;;;;;;;6.47;2.40;;;17.70;84.00;;;16.41;100.00;95601.53;4978651;28;20038;-74
2023/07/29 04:39:20;;;;;;;3.95;2.70;;;17.80;84.00;;;16.43;100.00;95603.94;4981987;28;20034;-73
2023/07/29 04:41:46;;;;;;;3.95;2.53;;;17.80;83.80;;;16.44;100.00;95603.72;4985946;28;20117;-72
2023/07/29 04:44:11;;;;;;;5.35;2.40;;;17.70;83.90;;;16.43;100.00;95599.44;4981340;28;20070;-73
2023/07/29 04:46:38;;;;;;;3.30;2.50;;;17.70;83.70;;;16.45;100.00;95602.66;4982763;28;20066;-72
2023/07/29 04:49:04;;;;;;;4.07;2.80;;;17.80;83.70;;;16.45;100.00;95605.31;4970524;28;20053;-73
2023/07/29 04:51:31;;;;;;;3.83;2.53;;;17.80;83.50;;;16.46;100.00;95601.63;4969465;28;20030;-74
2023/07/29 04:53:57;;;;;;;3.28;2.67;;;17.90;83.40;;;16.51;100.00;95606.22;4952505;28;20042;-72
2023/07/29 04:56:23;;;;;;;3.53;2.50;;;17.90;83.50;;;16.53;100.00;95604.16;4968041;28;20103;-72
2023/07/29 04:58:49;;;;;;;3.13;2.30;;;18.00;83.30;;;16.56;100.00;95601.03;4984594;28;20494;-72
2023/07/29 05:01:15;;;;;;;3.30;2.45;;;18.10;83.20;;;16.60;100.00;95596.03;4985115;28;20077;-72
2023/07/29 05:03:40;;;;;;;3.20;2.80;;;18.10;83.00;;;16.68;100.00;95606.28;4965352;28;20073;-73
2023/07/29 05:06:06;;;;;;;4.47;2.53;;;18.20;82.80;;;16.74;100.00;95605.31;4966028;28;20038;-71
2023/07/29 05:08:32;;;;;;;5.10;2.55;;;18.30;82.90;;;16.79;100.00;95600.13;4985493;28;20046;-71
2023/07/29 05:10:58;;;;;;;3.30;2.67;;;18.40;82.90;;;16.87;100.00;95605.03;4984361;28;20065;-71
2023/07/29 05:13:27;;;;;;;3.90;2.70;;;18.50;82.80;;;16.95;100.00;95601.97;4968595;28;20030;-72
2023/07/29 05:15:52;;;;;;;3.05;2.40;;;18.60;82.70;;;17.03;100.00;95604.25;4982942;28;20590;-72
2023/07/29 05:18:18;;;;;;;2.65;2.42;;;18.60;82.50;;;17.10;100.00;95604.88;4967368;28;20058;-73
2023/07/29 05:20:44;;;;;;;5.13;2.60;;;18.70;82.20;;;17.20;100.00;95606.06;4969071;28;20078;-75
2023/07/29 05:23:10;;;;;;;2.60;2.05;;;18.80;82.00;;;17.27;100.00;95596.91;4960891;28;20061;-71
2023/07/29 05:25:35;;;;;;;3.08;1.98;;;18.90;81.80;;;17.37;100.00;95594.38;4968002;28;20077;-73
2023/07/29 05:28:02;;;;;;;3.95;2.20;;;19.00;81.00;;;17.47;100.00;95599.06;4968810;28;20035;-71
2023/07/29 05:30:30;;;;;;;3.30;1.90;;;19.10;80.90;;;17.57;100.00;95590.41;4977509;28;20654;-71
2023/07/29 05:32:57;;;;;;;2.90;2.15;;;19.20;80.60;;;17.65;100.00;95596.13;4956058;28;20445;-73
2023/07/29 05:35:23;;;;;;;3.88;1.90;;;19.30;80.20;;;17.74;100.00;95605.31;4987458;28;20034;-72
2023/07/29 05:37:49;;;;;;;4.15;2.13;;;19.40;79.90;;;17.84;100.00;95601.97;4987775;28;20027;-73
2023/07/29 05:40:15;;;;;;;3.08;2.10;;;19.50;79.80;;;17.95;100.00;95600.28;4968183;28;20046;-73
2023/07/29 05:42:41;;;;;;;2.65;2.00;;;19.60;79.40;;;18.03;100.00;95597.97;4966411;28;20026;-74
2023/07/29 05:45:07;;;;;;;3.03;1.75;;;19.70;78.90;;;18.12;100.00;95606.34;4970228;28;20398;-72
2023/07/29 05:47:33;;;;;;;3.30;2.10;;;19.70;78.70;;;18.18;100.00;95601.88;4970671;28;20088;-72
2023/07/29 05:50:01;;;;;;;2.20;1.80;;;19.70;78.60;;;18.23;100.00;95608.06;4987702;28;20110;-74
2023/07/29 05:52:27;;;;;;;2.25;1.85;;;19.70;78.40;;;18.25;100.00;95605.94;4972547;28;20035;-73
2023/07/29 05:54:53;;;;;;;2.60;1.80;;;19.60;78.30;;;18.29;100.00;95601.72;4972128;28;20485;-72
2023/07/29 05:57:19;;;;;;;3.10;1.77;;;19.70;78.40;;;18.31;100.00;95601.47;4984307;28;20034;-73
2023/07/29 05:59:44;;;;;;;4.40;1.75;;;19.70;78.70;;;18.33;100.00;95602.88;4988522;28;20058;-72
2023/07/29 06:02:10;;;;;;;2.13;1.80;;;19.80;78.70;;;18.39;100.00;95606.38;4967142;28;20069;-73
2023/07/29 06:04:36;;;;;;;2.97;2.00;;;20.00;78.50;;;18.44;100.00;95600.31;4970704;28;20771;-73
2023/07/29 06:07:02;;;;;;;3.03;2.22;;;20.00;78.10;;;18.49;100.00;95601.16;4988059;28;20038;-72
2023/07/29 06:09:28;;;;;;;2.67;2.20;;;20.10;78.10;;;18.54;100.00;95600.41;4986932;28;20680;-73
2023/07/29 06:11:54;;;;;;;3.65;2.22;;;20.10;77.80;;;18.61;100.00;95609.00;4986052;28;20041;-72
2023/07/29 06:14:19;;;;;;;2.55;2.10;;;20.40;77.60;;;18.70;100.00;95610.19;4969580;28;20043;-73
2023/07/29 06:16:45;;;;;;;2.60;2.00;;;20.40;77.20;;;18.75;100.00;95604.91;4988486;28;20441;-73
2023/07/29 06:19:11;;;;;;;3.85;2.20;;;20.40;77.40;;;18.81;100.00;95609.25;4987563;28;20034;-72
2023/07/29 06:21:36;;;;;;;3.50;2.40;;;20.50;77.20;;;18.86;100.00;95603.16;4974156;28;20407;-74
2023/07/29 06:24:03;;;;;;;3.13;2.03;;;20.50;76.80;;;18.91;100.00;95603.19;4969908;28;20049;-73
2023/07/29 06:26:28;;;;;;;2.47;1.85;;;20.60;77.10;;;18.96;100.00;95604.03;4968000;28;20070;-74
2023/07/29 06:28:54;;;;;;;2.97;1.92;;;20.70;76.60;;;19.07;100.00;95612.94;4966189;28;20517;-73
2023/07/29 06:31:20;;;;;;;3.55;1.58;;;21.00;76.00;;;19.22;100.00;95609.56;4986200;28;20605;-74
2023/07/29 06:33:46;;;;;;;2.30;1.90;;;21.30;75.60;;;19.39;100.00;95607.56;4983484;28;20026;-74
2023/07/29 06:36:11;;;;;;;3.85;1.92;;;21.60;74.30;;;19.53;100.00;95611.44;4984115;28;20695;-71
2023/07/29 06:38:38;;;;;;;3.38;1.67;;;21.60;73.80;;;19.65;100.00;95613.09;4976734;28;20029;-70
2023/07/29 06:41:04;;;;;;;3.75;2.10;;;21.60;73.70;;;19.74;100.00;95609.72;4980594;28;20041;-69
2023/07/29 06:43:30;;;;;;;4.90;2.13;;;21.70;73.30;;;19.83;100.00;95608.16;4980167;28;20030;-69
2023/07/29 06:45:56;;;;;;;2.70;1.88;;;21.70;73.10;;;19.94;100.00;95613.56;4983946;28;20113;-68
2023/07/29 06:48:22;;;;;;;3.25;1.60;;;22.00;73.00;;;20.10;100.00;95609.88;4946171;28;20061;-70
2023/07/29 06:50:50;;;;;;;2.70;1.77;;;22.40;72.10;;;20.28;100.00;95627.31;4952405;28;20438;-68
2023/07/29 06:53:15;;;;;;;2.35;1.70;;;22.60;71.20;;;20.39;100.00;95659.16;4963370;28;20034;-71
2023/07/29 06:55:41;;;;;;;3.22;1.70;;;22.30;72.10;;;20.41;100.00;95680.28;4970544;28;20031;-71
2023/07/29 06:58:07;;;;;;;4.68;2.13;;;22.00;73.30;;;20.34;100.00;95679.69;4963795;28;20050;-70
2023/07/29 07:00:33;;;;;;;3.17;1.70;;;21.60;74.20;;;20.22;100.00;95665.75;4968532;28;20664;-70
2023/07/29 07:02:58;;;;;;;4.05;1.73;;;21.30;75.60;;;20.09;100.00;95673.16;4952393;28;20494;-69
2023/07/29 07:05:24;;;;;;;3.53;2.20;;;21.10;76.50;;;19.97;100.00;95666.41;4967657;28;20449;-71
2023/07/29 07:07:50;;;;;;;3.55;2.03;;;21.00;77.20;;;19.79;100.00;95662.31;4979914;28;20454;-72
2023/07/29 07:10:16;;;;;;;4.72;2.20;;;20.80;78.00;;;19.65;100.00;95667.28;4965999;28;20042;-73
2023/07/29 07:12:42;;;;;;;3.50;1.92;;;20.60;78.10;;;19.48;100.00;95677.28;4964039;28;20521;-73
2023/07/29 07:15:08;;;;;;;3.08;1.88;;;20.40;78.60;;;19.30;100.00;95675.78;4965255;28;20065;-74
2023/07/29 07:17:34;;;;;;;5.70;2.30;;;20.30;79.40;;;19.19;100.00;95666.88;4997835;28;20058;-71
2023/07/29 07:19:59;;;;;;;4.20;2.25;;;20.30;80.10;;;19.14;100.00;95672.16;4965926;28;20101;-71
2023/07/29 07:22:25;;;;;;;4.53;3.28;;;20.40;80.10;;;19.13;100.00;95675.09;4978554;28;20551;-72
2023/07/29 07:24:51;;;;;;;5.47;2.85;;;20.50;80.00;;;19.06;100.00;95661.16;4982425;28;20038;-72
2023/07/29 07:27:17;;;;;;;5.25;2.67;;;20.50;80.00;;;19.06;100.00;95658.50;4982372;28;20084;-72
2023/07/29 07:29:42;;;;;;;3.42;2.10;;;20.40;79.80;;;19.01;100.00;95643.28;4973798;28;20055;-72
2023/07/29 07:32:08;;;;;;;6.57;4.75;;;20.20;79.50;;;18.97;100.00;95628.81;4979498;28;20045;-73
2023/07/29 07:34:34;;;;;;;8.85;5.55;;;20.20;79.70;;;18.93;100.00;95633.06;4974317;28;20207;-71
2023/07/29 07:37:00;;;;;;;4.90;3.72;;;20.10;79.50;;;18.85;100.00;95612.22;4982823;28;20053;-72
2023/07/29 07:39:26;;;;;;;4.25;3.00;;;20.10;79.90;;;18.83;100.00;95607.13;4947752;28;20062;-72
2023/07/29 07:41:52;;;;;;;3.72;2.50;;;20.10;80.20;;;18.87;100.00;95602.91;4961983;28;20117;-72
2023/07/29 07:44:19;;;;;;;5.05;2.63;;;20.30;80.10;;;18.91;100.00;95606.66;4980984;28;20058;-72
2023/07/29 07:46:45;;;;;;;3.28;2.47;;;20.40;80.10;;;18.98;100.00;95609.91;4965923;28;20410;-71
2023/07/29 07:49:12;;;;;;;3.90;2.50;;;20.60;79.60;;;19.05;100.00;95614.25;4962082;28;20034;-72
2023/07/29 07:51:38;;;;;;;4.28;2.00;;;20.60;79.80;;;19.11;100.00;95616.69;4984780;28;20038;-71
2023/07/29 07:54:04;;;;;;;5.32;2.25;;;20.70;79.60;;;19.16;100.00;95618.59;4962487;28;20414;-70
2023/07/29 07:56:30;;;;;;;5.10;2.70;;;20.70;79.50;;;19.25;100.00;95609.88;4983773;28;20034;-71
2023/07/29 07:58:55;;;;;;;4.18;2.65;;;20.80;78.90;;;19.35;100.00;95609.16;4979408;28;20053;-71
2023/07/29 08:01:21;;;;;;;3.85;2.60;;;21.00;78.30;;;19.46;100.00;95602.00;4981770;28;20045;-71
2023/07/29 08:03:47;;;;;;;3.60;2.45;;;21.20;77.60;;;19.56;100.00;95607.47;4963995;28;20129;-72
2023/07/29 08:06:12;;;;;;;3.38;2.22;;;21.30;77.20;;;19.63;100.00;95602.69;4963028;28;20097;-72
2023/07/29 08:08:38;;;;;;;5.03;2.20;;;21.30;76.90;;;19.71;100.00;95596.09;4963981;28;20035;-72
2023/07/29 08:11:04;;;;;;;3.00;2.28;;;21.40;76.80;;;19.79;100.00;95595.59;4964264;28;20058;-70
2023/07/29 08:13:30;;;;;;;4.32;2.20;;;21.60;76.20;;;19.86;100.00;95598.81;4983036;28;20108;-71
2023/07/29 08:15:55;;;;;;;3.22;2.10;;;21.60;75.60;;;19.96;100.00;95603.41;4978124;28;20177;-74
2023/07/29 08:18:21;;;;;;;2.92;2.20;;;21.80;75.00;;;20.06;100.00;95604.25;4962785;28;20104;-73
2023/07/29 08:20:59;;;;;;;4.35;2.28;;;21.90;74.90;;;20.18;100.00;95596.84;4965338;28;20034;-73
2023/07/29 08:23:27;;;;;;;3.58;2.28;;;22.10;74.50;;;20.27;100.00;95602.47;4950183;28;20073;-74
2023/07/29 08:25:55;;;;;;;2.90;2.10;;;22.10;73.80;;;20.37;100.00;95601.72;4945728;28;20106;-74
2023/07/29 08:28:22;;;;;;;3.17;1.92;;;22.20;74.00;;;20.45;100.00;95614.59;4963076;28;20485;-74
2023/07/29 08:30:48;;;;;;;5.40;2.47;;;22.30;73.30;;;20.50;100.00;95614.59;4973019;28;20096;-73
2023/07/29 08:33:14;;;;;;;3.45;2.05;;;22.30;73.20;;;20.59;100.00;95623.69;4963404;28;20035;-72
2023/07/29 08:35:40;;;;;;;3.72;2.17;;;22.50;72.70;;;20.63;100.00;95624.78;4953817;28;20454;-69
2023/07/29 08:38:06;;;;;;;4.80;2.30;;;22.40;72.70;;;20.72;100.00;95628.53;4974075;28;20120;-69
2023/07/29 08:40:31;;;;;;;5.35;2.53;;;22.60;72.50;;;20.80;100.00;95625.34;4966253;28;20035;-68
2023/07/29 08:42:58;;;;;;;3.90;2.47;;;22.70;72.30;;;20.93;100.00;95618.69;4945331;28;20146;-71
2023/07/29 08:45:24;;;;;;;4.05;2.25;;;23.00;71.80;;;21.04;100.00;95614.13;4946204;28;20444;-69
2023/07/29 08:47:50;;;;;;;3.58;2.40;;;23.10;71.40;;;21.13;100.00;95611.75;4946684;28;20039;-70
2023/07/29 08:50:15;;;;;;;3.50;2.17;;;23.10;71.20;;;21.25;100.00;95621.13;4950462;28;20045;-70
2023/07/29 08:52:42;;;;;;;4.78;2.38;;;23.30;70.80;;;21.34;100.00;95626.78;4945233;28;20039;-68
2023/07/29 08:55:08;;;;;;;3.92;2.33;;;23.40;70.30;;;21.48;100.00;95627.00;4951384;28;20038;-68
2023/07/29 08:57:34;;;;;;;3.13;2.20;;;23.70;69.70;;;21.65;100.00;95630.22;4946463;28;20121;-68
2023/07/29 09:00:00;;;;;;;3.60;2.53;;;23.90;68.70;;;21.82;100.00;95630.72;4941507;28;20050;-70
2023/07/29 09:02:26;;;;;;;3.08;2.15;;;24.20;68.00;;;22.01;100.00;95629.06;4947964;28;20038;-69
2023/07/29 09:04:52;;;;;;;3.70;2.30;;;24.50;67.50;;;22.21;100.00;95630.94;4972586;28;20031;-67
2023/07/29 09:07:18;;;;;;;3.83;2.63;;;24.70;67.30;;;22.47;100.00;95620.91;4969522;28;20041;-68
2023/07/29 09:09:43;;;;;;;3.15;2.20;;;25.20;64.80;;;22.78;100.00;95621.53;4968625;28;20516;-68
2023/07/29 09:12:11;;;;;;;4.15;2.22;;;25.90;64.20;;;23.16;100.00;95611.91;4966476;28;20121;-68
2023/07/29 09:14:36;;;;;;;3.90;2.58;;;26.60;63.60;;;23.60;100.00;95621.78;4949197;28;20510;-68
2023/07/29 09:17:02;;;;;;;3.05;2.15;;;26.90;59.90;;;23.99;99.74;95618.16;4955550;28;20153;-70
2023/07/29 09:19:28;;;;;;;3.22;2.35;;;27.60;58.80;;;24.46;97.67;95616.56;4946863;28;20042;-70
2023/07/29 09:21:54;;;;;;;3.92;2.35;;;28.20;57.70;;;24.90;95.85;95617.03;4951966;28;20074;-69
2023/07/29 09:24:20;;;;;;;3.17;1.85;;;28.60;56.50;;;25.33;92.80;95614.25;4960021;28;20034;-69
2023/07/29 09:26:50;;;;;;;4.82;2.45;;;29.00;55.00;;;25.58;87.09;95602.28;4953583;28;20034;-68
2023/07/29 09:29:16;;;;;;;4.32;2.30;;;28.80;54.80;;;25.81;87.90;95609.44;4946267;28;20545;-69
2023/07/29 09:31:41;;;;;;;3.05;2.15;;;29.10;53.60;;;26.18;87.16;95603.06;4967530;28;20069;-68
2023/07/29 09:34:08;;;;;;;3.58;2.45;;;29.90;53.20;;;26.53;84.03;95603.47;4974878;28;20162;-69
2023/07/29 09:36:33;;;;;;;7.35;1.90;;;30.00;51.40;;;26.89;83.18;95589.19;4966601;28;20046;-69
2023/07/29 09:38:59;;;;;;;3.38;1.90;;;30.60;50.60;;;27.36;80.90;95588.59;4947556;28;20038;-68
2023/07/29 09:41:30;;;;;;;2.67;2.22;;;31.40;49.60;;;27.71;74.07;95569.94;4949273;28;20089;-68
2023/07/29 09:44:01;;;;;;;4.70;2.35;;;31.40;47.40;;;28.05;73.88;95569.28;4949865;28;20035;-69
2023/07/29 09:46:34;;;;;;;2.90;2.17;;;31.80;47.40;;;28.39;67.20;95544.28;4948842;28;20042;-69
2023/07/29 09:49:01;;;;;;;3.45;2.42;;;31.90;45.10;;;28.39;71.16;95571.31;4941645;28;20046;-70
2023/07/29 09:51:27;;;;;;;3.42;2.42;;;31.10;45.10;;;28.30;69.91;95570.53;4951086;28;20062;-69
2023/07/29 09:53:52;;;;;;;3.17;2.40;;;30.70;47.20;;;28.24;69.29;95567.13;4980252;28;20057;-70
2023/07/29 09:56:20;;;;;;;3.00;2.30;;;30.70;47.50;;;28.36;69.10;95571.97;4966948;28;20502;-72
2023/07/29 09:58:47;;;;;;;3.30;2.25;;;31.30;47.00;;;28.55;68.05;95575.19;4966697;28;20058;-71
2023/07/29 10:01:13;;;;;;;3.00;2.42;;;31.60;45.70;;;28.81;67.88;95571.72;4967165;28;20038;-71
2023/07/29 10:03:38;;;;;;;3.38;2.50;;;32.30;45.80;;;29.00;66.97;95560.59;4950757;28;20162;-72
2023/07/29 10:06:05;;;;;;;3.92;2.40;;;32.50;44.20;;;29.32;65.66;95560.06;4966405;28;20038;-74
2023/07/29 10:08:32;;;;;;;2.75;2.25;;;33.20;42.10;;;29.44;63.63;95562.94;4948115;28;20038;-73
2023/07/29 10:11:01;;;;;;;4.30;2.25;;;32.40;42.40;;;29.41;60.38;95525.63;4964841;28;20038;-70